createdAt,value
2018-03-06T00:00:10.144Z,0
2018-03-06T00:00:50.728Z,0
2018-03-06T00:01:31.260Z,0
2018-03-06T00:02:11.829Z,0
2018-03-06T00:02:52.404Z,0
2018-03-06T00:03:32.968Z,0
2018-03-06T00:04:13.557Z,0
2018-03-06T00:04:54.115Z,0
2018-03-06T00:05:34.667Z,0
2018-03-06T00:06:15.240Z,0
2018-03-06T00:06:55.784Z,0
2018-03-06T00:07:36.353Z,0
2018-03-06T00:08:17.246Z,0
2018-03-06T00:08:57.622Z,0
2018-03-06T00:09:38.247Z,0
2018-03-06T00:10:18.804Z,0
2018-03-06T00:10:59.402Z,0
2018-03-06T00:11:39.985Z,0
2018-03-06T00:12:20.538Z,0
2018-03-06T00:13:01.100Z,0
2018-03-06T00:13:41.677Z,0
2018-03-06T00:14:22.430Z,0
2018-03-06T00:15:02.946Z,0
2018-03-06T00:15:43.508Z,0
2018-03-06T00:16:24.050Z,0
2018-03-06T00:17:04.602Z,0
2018-03-06T00:17:45.182Z,0
2018-03-06T00:18:25.737Z,0
2018-03-06T00:19:06.279Z,0
2018-03-06T00:19:46.839Z,0
2018-03-06T00:20:27.390Z,0
2018-03-06T00:21:07.940Z,0
2018-03-06T00:21:48.494Z,0
2018-03-06T00:22:29.053Z,0
2018-03-06T00:23:09.627Z,0
2018-03-06T00:23:50.180Z,0
2018-03-06T00:24:30.747Z,0
2018-03-06T00:25:11.287Z,0
2018-03-06T00:25:51.832Z,0
2018-03-06T00:26:32.394Z,0
2018-03-06T00:27:12.964Z,0
2018-03-06T00:27:53.523Z,0
2018-03-06T00:28:34.067Z,0
2018-03-06T00:29:14.627Z,0
2018-03-06T00:29:55.186Z,0
2018-03-06T00:30:35.753Z,0
2018-03-06T00:31:16.318Z,0
2018-03-06T00:31:56.876Z,0
2018-03-06T00:32:37.430Z,0
2018-03-06T00:33:17.972Z,0
2018-03-06T00:33:58.537Z,0
2018-03-06T00:34:39.099Z,0
2018-03-06T00:35:19.653Z,0
2018-03-06T00:36:00.201Z,0
2018-03-06T00:36:40.752Z,0
2018-03-06T00:37:21.307Z,0
2018-03-06T00:38:01.864Z,0
2018-03-06T00:38:42.427Z,0
2018-03-06T00:39:22.987Z,0
2018-03-06T00:40:03.538Z,0
2018-03-06T00:40:44.133Z,0
2018-03-06T00:41:24.654Z,0
2018-03-06T00:42:05.208Z,0
2018-03-06T00:42:45.769Z,0
2018-03-06T00:43:26.325Z,0
2018-03-06T00:44:06.929Z,0
2018-03-06T00:44:47.456Z,0
2018-03-06T00:45:28.011Z,0
2018-03-06T00:46:08.579Z,0
2018-03-06T00:46:49.162Z,0
2018-03-06T00:47:29.726Z,0
2018-03-06T00:48:10.293Z,0
2018-03-06T00:48:50.854Z,0
2018-03-06T00:49:31.422Z,0
2018-03-06T00:50:11.980Z,0
2018-03-06T00:50:52.529Z,0
2018-03-06T00:51:33.092Z,0
2018-03-06T00:52:13.654Z,0
2018-03-06T00:52:54.223Z,0
2018-03-06T00:53:34.790Z,0
2018-03-06T00:54:15.338Z,0
2018-03-06T00:54:55.896Z,0
2018-03-06T00:55:36.480Z,0
2018-03-06T00:56:17.009Z,0
2018-03-06T00:56:57.554Z,0
2018-03-06T00:57:38.120Z,0
2018-03-06T00:58:18.662Z,0
2018-03-06T00:58:59.226Z,0
2018-03-06T00:59:39.766Z,0
2018-03-06T01:00:20.342Z,0
2018-03-06T01:01:00.854Z,0
2018-03-06T01:01:41.404Z,0
2018-03-06T01:02:21.981Z,0
2018-03-06T01:03:02.517Z,0
2018-03-06T01:03:43.076Z,0
2018-03-06T01:04:23.623Z,0
2018-03-06T01:05:04.180Z,0
2018-03-06T01:05:44.728Z,0
2018-03-06T01:06:25.272Z,0
2018-03-06T01:07:05.834Z,0
2018-03-06T01:07:46.390Z,0
2018-03-06T01:08:27.018Z,0
2018-03-06T01:09:07.511Z,0
2018-03-06T01:09:48.084Z,0
2018-03-06T01:10:28.630Z,0
2018-03-06T01:11:09.186Z,0
2018-03-06T01:11:49.741Z,0
2018-03-06T01:12:30.291Z,0
2018-03-06T01:13:10.857Z,0
2018-03-06T01:13:51.410Z,0
2018-03-06T01:14:31.965Z,0
2018-03-06T01:15:12.517Z,0
2018-03-06T01:15:53.063Z,0
2018-03-06T01:16:33.615Z,0
2018-03-06T01:17:14.170Z,0
2018-03-06T01:17:54.728Z,0
2018-03-06T01:18:35.286Z,0
2018-03-06T01:19:15.843Z,0
2018-03-06T01:19:56.414Z,0
2018-03-06T01:20:36.961Z,0
2018-03-06T01:21:17.514Z,0
2018-03-06T01:21:58.072Z,0
2018-03-06T01:22:38.595Z,0
2018-03-06T01:23:19.151Z,0
2018-03-06T01:23:59.708Z,0
2018-03-06T01:24:40.282Z,0
2018-03-06T01:25:20.838Z,0
2018-03-06T01:26:01.410Z,0
2018-03-06T01:26:41.965Z,0
2018-03-06T01:27:22.536Z,0
2018-03-06T01:28:03.087Z,0
2018-03-06T01:28:43.686Z,0
2018-03-06T01:29:24.239Z,0
2018-03-06T01:30:04.804Z,0
2018-03-06T01:30:45.349Z,0
2018-03-06T01:31:25.915Z,0
2018-03-06T01:32:06.461Z,0
2018-03-06T01:32:47.054Z,0
2018-03-06T01:33:27.605Z,0
2018-03-06T01:34:08.168Z,0
2018-03-06T01:34:48.715Z,0
2018-03-06T01:35:29.281Z,0
2018-03-06T01:36:09.850Z,0
2018-03-06T01:36:50.416Z,0
2018-03-06T01:37:31.025Z,0
2018-03-06T01:38:11.576Z,0
2018-03-06T01:38:52.120Z,0
2018-03-06T01:39:32.670Z,0
2018-03-06T01:40:13.268Z,0
2018-03-06T01:40:53.833Z,0
2018-03-06T01:41:34.393Z,0
2018-03-06T01:42:14.949Z,0
2018-03-06T01:42:55.498Z,0
2018-03-06T01:43:36.125Z,0
2018-03-06T01:44:16.619Z,0
2018-03-06T01:44:57.189Z,0
2018-03-06T01:45:37.797Z,0
2018-03-06T01:46:18.355Z,0
2018-03-06T01:46:58.917Z,0
2018-03-06T01:47:39.475Z,0
2018-03-06T01:48:20.021Z,0
2018-03-06T01:49:00.572Z,0
2018-03-06T01:49:41.152Z,0
2018-03-06T01:50:21.713Z,0
2018-03-06T01:51:02.276Z,0
2018-03-06T01:51:42.834Z,0
2018-03-06T01:52:23.388Z,0
2018-03-06T01:53:03.962Z,0
2018-03-06T01:53:44.523Z,0
2018-03-06T01:54:25.094Z,0
2018-03-06T01:55:05.644Z,0
2018-03-06T01:55:46.230Z,0
2018-03-06T01:56:26.784Z,0
2018-03-06T01:57:07.348Z,0
2018-03-06T01:57:47.908Z,0
2018-03-06T01:58:28.549Z,0
2018-03-06T01:59:09.116Z,0
2018-03-06T01:59:49.692Z,0
2018-03-06T02:00:30.277Z,0
2018-03-06T02:01:10.839Z,0
2018-03-06T02:01:51.391Z,0
2018-03-06T02:02:31.933Z,0
2018-03-06T02:03:12.499Z,0
2018-03-06T02:03:53.052Z,0
2018-03-06T02:04:33.613Z,0
2018-03-06T02:05:14.183Z,0
2018-03-06T02:05:54.825Z,0
2018-03-06T02:06:35.358Z,0
2018-03-06T02:07:15.921Z,0
2018-03-06T02:07:56.531Z,0
2018-03-06T02:08:37.101Z,0
2018-03-06T02:09:17.666Z,0
2018-03-06T02:09:58.227Z,0
2018-03-06T02:10:38.784Z,0
2018-03-06T02:11:19.353Z,0
2018-03-06T02:11:59.917Z,0
2018-03-06T02:12:40.457Z,0
2018-03-06T02:13:21.022Z,0
2018-03-06T02:14:01.604Z,0
2018-03-06T02:14:42.228Z,0
2018-03-06T02:15:22.729Z,0
2018-03-06T02:16:03.299Z,0
2018-03-06T02:16:43.828Z,0
2018-03-06T02:17:24.391Z,0
2018-03-06T02:18:04.958Z,0
2018-03-06T02:18:45.478Z,0
2018-03-06T02:19:26.049Z,0
2018-03-06T02:20:06.602Z,0
2018-03-06T02:20:47.154Z,0
2018-03-06T02:21:27.703Z,0
2018-03-06T02:22:08.293Z,0
2018-03-06T02:22:48.830Z,0
2018-03-06T02:23:29.389Z,0
2018-03-06T02:24:09.962Z,0
2018-03-06T02:24:50.510Z,0
2018-03-06T02:25:31.072Z,0
2018-03-06T02:26:11.778Z,0
2018-03-06T02:26:52.342Z,0
2018-03-06T02:27:32.917Z,0
2018-03-06T02:28:13.529Z,0
2018-03-06T02:28:54.081Z,0
2018-03-06T02:29:34.655Z,0
2018-03-06T02:30:15.212Z,0
2018-03-06T02:30:55.765Z,0
2018-03-06T02:31:36.312Z,0
2018-03-06T02:32:16.880Z,0
2018-03-06T02:32:57.437Z,0
2018-03-06T02:33:38.006Z,0
2018-03-06T02:34:18.581Z,0
2018-03-06T02:34:59.153Z,0
2018-03-06T02:35:39.714Z,0
2018-03-06T02:36:20.270Z,0
2018-03-06T02:37:00.829Z,0
2018-03-06T02:37:41.389Z,0
2018-03-06T02:38:21.935Z,0
2018-03-06T02:39:02.510Z,0
2018-03-06T02:39:43.064Z,0
2018-03-06T02:40:23.608Z,0
2018-03-06T02:41:04.165Z,0
2018-03-06T02:41:44.713Z,0
2018-03-06T02:42:25.272Z,0
2018-03-06T02:43:05.813Z,0
2018-03-06T02:43:46.351Z,0
2018-03-06T02:44:26.920Z,0
2018-03-06T02:45:07.449Z,0
2018-03-06T02:45:47.996Z,0
2018-03-06T02:46:28.548Z,0
2018-03-06T02:47:09.112Z,0
2018-03-06T02:47:49.667Z,0
2018-03-06T02:48:30.235Z,0
2018-03-06T02:49:10.786Z,0
2018-03-06T02:49:51.309Z,0
2018-03-06T02:50:31.877Z,0
2018-03-06T02:51:12.425Z,0
2018-03-06T02:51:52.980Z,0
2018-03-06T02:52:33.532Z,0
2018-03-06T02:53:14.080Z,0
2018-03-06T02:53:54.630Z,0
2018-03-06T02:54:35.208Z,0
2018-03-06T02:55:15.778Z,0
2018-03-06T02:55:56.346Z,0
2018-03-06T02:56:36.901Z,0
2018-03-06T02:57:17.440Z,0
2018-03-06T02:57:58.006Z,0
2018-03-06T02:58:38.561Z,0
2018-03-06T02:59:19.116Z,0
2018-03-06T02:59:59.670Z,0
2018-03-06T03:00:40.222Z,0
2018-03-06T03:01:20.784Z,0
2018-03-06T03:02:01.344Z,0
2018-03-06T03:02:41.901Z,0
2018-03-06T03:03:22.463Z,0
2018-03-06T03:04:02.994Z,0
2018-03-06T03:04:43.543Z,0
2018-03-06T03:05:24.100Z,0
2018-03-06T03:06:04.675Z,0
2018-03-06T03:06:45.240Z,0
2018-03-06T03:07:25.803Z,0
2018-03-06T03:08:06.356Z,0
2018-03-06T03:08:46.907Z,0
2018-03-06T03:09:27.468Z,0
2018-03-06T03:10:08.026Z,0
2018-03-06T03:10:48.586Z,0
2018-03-06T03:11:29.137Z,0
2018-03-06T03:12:09.687Z,0
2018-03-06T03:12:50.249Z,0
2018-03-06T03:13:30.824Z,0
2018-03-06T03:14:11.376Z,0
2018-03-06T03:14:51.940Z,0
2018-03-06T03:15:32.495Z,0
2018-03-06T03:16:13.085Z,0
2018-03-06T03:16:53.647Z,0
2018-03-06T03:17:34.197Z,0
2018-03-06T03:18:14.750Z,0
2018-03-06T03:18:55.379Z,0
2018-03-06T03:19:35.953Z,0
2018-03-06T03:20:16.492Z,0
2018-03-06T03:20:57.040Z,0
2018-03-06T03:21:37.584Z,0
2018-03-06T03:22:18.138Z,0
2018-03-06T03:22:58.696Z,0
2018-03-06T03:23:39.243Z,0
2018-03-06T03:24:19.795Z,0
2018-03-06T03:25:00.351Z,0
2018-03-06T03:25:40.899Z,0
2018-03-06T03:26:21.436Z,0
2018-03-06T03:27:01.993Z,0
2018-03-06T03:27:42.544Z,0
2018-03-06T03:28:23.103Z,0
2018-03-06T03:29:03.659Z,0
2018-03-06T03:29:44.213Z,0
2018-03-06T03:30:24.755Z,0
2018-03-06T03:31:05.318Z,0
2018-03-06T03:31:45.870Z,0
2018-03-06T03:32:26.440Z,0
2018-03-06T03:33:07.003Z,0
2018-03-06T03:33:47.557Z,0
2018-03-06T03:34:28.107Z,0
2018-03-06T03:35:08.694Z,0
2018-03-06T03:35:49.252Z,0
2018-03-06T03:36:29.808Z,0
2018-03-06T03:37:10.362Z,0
2018-03-06T03:37:50.911Z,0
2018-03-06T03:38:32.134Z,0
2018-03-06T03:39:12.700Z,0
2018-03-06T03:39:53.264Z,0
2018-03-06T03:40:33.831Z,0
2018-03-06T03:41:14.379Z,0
2018-03-06T03:41:54.932Z,0
2018-03-06T03:42:35.517Z,0
2018-03-06T03:43:16.133Z,0
2018-03-06T03:43:56.724Z,0
2018-03-06T03:44:37.234Z,0
2018-03-06T03:45:17.827Z,0
2018-03-06T03:45:58.341Z,0
2018-03-06T03:46:38.905Z,0
2018-03-06T03:47:19.439Z,0
2018-03-06T03:48:00.007Z,0
2018-03-06T03:48:40.573Z,0
2018-03-06T03:49:21.108Z,0
2018-03-06T03:50:01.708Z,0
2018-03-06T03:50:42.251Z,0
2018-03-06T03:51:22.822Z,0
2018-03-06T03:52:03.361Z,0
2018-03-06T03:52:43.926Z,0
2018-03-06T03:53:24.481Z,0
2018-03-06T03:54:05.050Z,0
2018-03-06T03:54:45.598Z,0
2018-03-06T03:55:26.150Z,0
2018-03-06T03:56:06.690Z,0
2018-03-06T03:56:47.235Z,0
2018-03-06T03:57:27.829Z,0
2018-03-06T03:58:08.386Z,0
2018-03-06T03:58:48.942Z,0
2018-03-06T03:59:29.495Z,0
2018-03-06T04:00:10.059Z,0
2018-03-06T04:00:50.623Z,0
2018-03-06T04:01:31.187Z,0
2018-03-06T04:02:11.787Z,0
2018-03-06T04:02:52.337Z,0
2018-03-06T04:03:32.891Z,0
2018-03-06T04:04:13.464Z,0
2018-03-06T04:04:54.323Z,0
2018-03-06T04:05:34.831Z,0
2018-03-06T04:06:15.412Z,0
2018-03-06T04:06:55.978Z,0
2018-03-06T04:07:36.555Z,0
2018-03-06T04:08:17.126Z,0
2018-03-06T04:08:57.674Z,0
2018-03-06T04:09:38.231Z,0
2018-03-06T04:10:18.795Z,0
2018-03-06T04:10:59.361Z,0
2018-03-06T04:11:39.930Z,0
2018-03-06T04:12:20.495Z,0
2018-03-06T04:13:01.064Z,0
2018-03-06T04:13:41.625Z,0
2018-03-06T04:14:22.210Z,0
2018-03-06T04:15:02.760Z,0
2018-03-06T04:15:43.306Z,0
2018-03-06T04:16:23.866Z,0
2018-03-06T04:17:04.401Z,0
2018-03-06T04:17:44.962Z,0
2018-03-06T04:18:25.506Z,0
2018-03-06T04:19:06.062Z,0
2018-03-06T04:19:46.631Z,0
2018-03-06T04:20:27.168Z,0
2018-03-06T04:21:07.710Z,0
2018-03-06T04:21:48.263Z,0
2018-03-06T04:22:28.804Z,0
2018-03-06T04:23:09.351Z,0
2018-03-06T04:23:49.920Z,0
2018-03-06T04:24:30.670Z,0
2018-03-06T04:25:11.234Z,0
2018-03-06T04:25:51.770Z,0
2018-03-06T04:26:32.347Z,0
2018-03-06T04:27:12.894Z,0
2018-03-06T04:27:53.454Z,0
2018-03-06T04:28:34.038Z,0
2018-03-06T04:29:14.592Z,0
2018-03-06T04:29:55.146Z,0
2018-03-06T04:30:35.704Z,0
2018-03-06T04:31:16.253Z,0
2018-03-06T04:31:56.943Z,0
2018-03-06T04:32:37.506Z,0
2018-03-06T04:33:18.079Z,0
2018-03-06T04:33:58.627Z,0
2018-03-06T04:34:39.181Z,0
2018-03-06T04:35:19.785Z,0
2018-03-06T04:36:00.309Z,0
2018-03-06T04:36:40.862Z,0
2018-03-06T04:37:21.422Z,0
2018-03-06T04:38:02.008Z,0
2018-03-06T04:38:42.593Z,0
2018-03-06T04:39:23.213Z,0
2018-03-06T04:40:03.715Z,0
2018-03-06T04:40:44.264Z,0
2018-03-06T04:41:24.814Z,0
2018-03-06T04:42:05.365Z,0
2018-03-06T04:42:45.929Z,0
2018-03-06T04:43:26.495Z,0
2018-03-06T04:44:07.065Z,0
2018-03-06T04:44:47.628Z,0
2018-03-06T04:45:28.197Z,0
2018-03-06T04:46:08.750Z,0
2018-03-06T04:46:49.341Z,0
2018-03-06T04:47:29.899Z,0
2018-03-06T04:48:10.452Z,0
2018-03-06T04:48:51.009Z,0
2018-03-06T04:49:31.562Z,0
2018-03-06T04:50:12.118Z,0
2018-03-06T04:50:52.670Z,0
2018-03-06T04:51:33.236Z,0
2018-03-06T04:52:13.804Z,0
2018-03-06T04:52:54.369Z,0
2018-03-06T04:53:34.960Z,0
2018-03-06T04:54:15.497Z,0
2018-03-06T04:54:56.052Z,0
2018-03-06T04:55:36.611Z,0
2018-03-06T04:56:17.166Z,0
2018-03-06T04:56:57.718Z,0
2018-03-06T04:57:38.272Z,0
2018-03-06T04:58:18.823Z,0
2018-03-06T04:58:59.380Z,0
2018-03-06T04:59:39.946Z,0
2018-03-06T05:00:20.499Z,0
2018-03-06T05:01:01.046Z,0
2018-03-06T05:01:41.597Z,0
2018-03-06T05:02:22.193Z,0
2018-03-06T05:03:02.725Z,0
2018-03-06T05:03:43.292Z,0
2018-03-06T05:04:23.840Z,0
2018-03-06T05:05:04.531Z,0
2018-03-06T05:05:44.936Z,0
2018-03-06T05:06:25.499Z,0
2018-03-06T05:07:06.063Z,0
2018-03-06T05:07:46.626Z,0
2018-03-06T05:08:27.182Z,0
2018-03-06T05:09:07.732Z,0
2018-03-06T05:09:48.278Z,0
2018-03-06T05:10:28.826Z,0
2018-03-06T05:11:09.382Z,0
2018-03-06T05:11:49.929Z,0
2018-03-06T05:12:30.479Z,4
2018-03-06T05:13:11.071Z,4
2018-03-06T05:13:51.643Z,4
2018-03-06T05:14:32.211Z,0
2018-03-06T05:15:12.764Z,4
2018-03-06T05:15:53.322Z,4
2018-03-06T05:16:33.872Z,4
2018-03-06T05:17:14.410Z,4
2018-03-06T05:17:54.966Z,4
2018-03-06T05:18:35.508Z,8
2018-03-06T05:19:16.088Z,8
2018-03-06T05:19:56.660Z,8
2018-03-06T05:20:37.192Z,8
2018-03-06T05:21:17.737Z,8
2018-03-06T05:21:58.290Z,12
2018-03-06T05:22:38.842Z,12
2018-03-06T05:23:19.399Z,12
2018-03-06T05:23:59.970Z,12
2018-03-06T05:24:40.530Z,20
2018-03-06T05:25:21.086Z,20
2018-03-06T05:26:01.668Z,24
2018-03-06T05:26:42.250Z,20
2018-03-06T05:27:22.796Z,24
2018-03-06T05:28:03.343Z,28
2018-03-06T05:28:43.899Z,32
2018-03-06T05:29:24.467Z,36
2018-03-06T05:30:05.027Z,36
2018-03-06T05:30:45.590Z,40
2018-03-06T05:31:26.151Z,44
2018-03-06T05:32:06.717Z,44
2018-03-06T05:32:47.274Z,52
2018-03-06T05:33:27.821Z,52
2018-03-06T05:34:08.374Z,56
2018-03-06T05:34:48.919Z,64
2018-03-06T05:35:29.475Z,68
2018-03-06T05:36:10.029Z,72
2018-03-06T05:36:50.578Z,76
2018-03-06T05:37:31.149Z,84
2018-03-06T05:38:11.701Z,88
2018-03-06T05:38:52.261Z,92
2018-03-06T05:39:32.815Z,96
2018-03-06T05:40:13.379Z,104
2018-03-06T05:40:53.933Z,112
2018-03-06T05:41:34.495Z,116
2018-03-06T05:42:15.050Z,120
2018-03-06T05:42:55.621Z,128
2018-03-06T05:43:36.181Z,136
2018-03-06T05:44:16.782Z,144
2018-03-06T05:44:57.320Z,152
2018-03-06T05:45:37.863Z,164
2018-03-06T05:46:18.423Z,172
2018-03-06T05:46:58.958Z,184
2018-03-06T05:47:39.517Z,196
2018-03-06T05:48:20.066Z,208
2018-03-06T05:49:00.620Z,220
2018-03-06T05:49:41.174Z,236
2018-03-06T05:50:21.816Z,252
2018-03-06T05:51:03.197Z,272
2018-03-06T05:54:33.058Z,372
2018-03-06T05:55:13.623Z,396
2018-03-06T05:55:54.227Z,424
2018-03-06T05:56:34.815Z,444
2018-03-06T05:57:15.429Z,472
2018-03-06T05:57:55.994Z,496
2018-03-06T05:58:36.557Z,524
2018-03-06T05:59:17.158Z,552
2018-03-06T05:59:57.710Z,580
2018-03-06T06:00:38.261Z,608
2018-03-06T06:01:18.812Z,640
2018-03-06T06:01:59.372Z,668
2018-03-06T06:02:39.933Z,700
2018-03-06T06:03:20.509Z,736
2018-03-06T06:04:01.057Z,768
2018-03-06T06:04:41.602Z,808
2018-03-06T06:05:22.174Z,844
2018-03-06T06:06:02.807Z,880
2018-03-06T06:06:43.351Z,916
2018-03-06T06:07:23.917Z,956
2018-03-06T06:08:04.459Z,996
2018-03-06T06:08:45.073Z,1036
2018-03-06T06:09:25.620Z,1076
2018-03-06T06:10:06.176Z,1112
2018-03-06T06:10:46.813Z,1148
2018-03-06T06:11:27.317Z,1188
2018-03-06T06:12:07.870Z,1228
2018-03-06T06:12:48.422Z,1264
2018-03-06T06:13:29.056Z,1304
2018-03-06T06:14:09.634Z,1344
2018-03-06T06:14:50.171Z,1392
2018-03-06T06:15:30.776Z,1428
2018-03-06T06:16:11.338Z,1472
2018-03-06T06:16:51.888Z,1516
2018-03-06T06:17:32.483Z,1564
2018-03-06T06:18:13.102Z,1612
2018-03-06T06:18:53.656Z,1656
2018-03-06T06:19:34.196Z,1708
2018-03-06T06:20:14.772Z,1752
2018-03-06T06:20:55.365Z,1796
2018-03-06T06:21:35.926Z,1840
2018-03-06T06:22:16.477Z,1888
2018-03-06T06:22:57.035Z,1932
2018-03-06T06:23:37.586Z,1964
2018-03-06T06:24:18.135Z,2000
2018-03-06T06:24:58.685Z,2032
2018-03-06T06:25:39.235Z,2064
2018-03-06T06:26:19.793Z,2096
2018-03-06T06:27:00.361Z,2128
2018-03-06T06:27:40.916Z,2164
2018-03-06T06:28:21.462Z,2204
2018-03-06T06:29:02.272Z,2240
2018-03-06T06:29:42.850Z,2284
2018-03-06T06:30:23.393Z,2332
2018-03-06T06:31:03.951Z,2376
2018-03-06T06:31:44.565Z,2404
2018-03-06T06:32:25.160Z,2440
2018-03-06T06:33:05.704Z,2480
2018-03-06T06:33:46.247Z,2512
2018-03-06T06:34:26.804Z,2528
2018-03-06T06:35:07.354Z,2544
2018-03-06T06:35:48.087Z,2552
2018-03-06T06:36:28.620Z,2576
2018-03-06T06:37:09.169Z,2608
2018-03-06T06:37:49.731Z,2640
2018-03-06T06:38:30.323Z,2672
2018-03-06T06:39:10.890Z,2708
2018-03-06T06:39:51.435Z,2740
2018-03-06T06:40:32.060Z,2776
2018-03-06T06:41:12.614Z,2816
2018-03-06T06:41:53.173Z,2848
2018-03-06T06:42:33.736Z,2880
2018-03-06T06:43:14.273Z,2924
2018-03-06T06:43:54.826Z,2968
2018-03-06T06:44:35.390Z,3008
2018-03-06T06:45:15.996Z,3048
2018-03-06T06:45:56.570Z,3104
2018-03-06T06:46:37.152Z,3156
2018-03-06T06:47:17.717Z,3204
2018-03-06T06:47:58.268Z,3260
2018-03-06T06:48:38.820Z,3308
2018-03-06T06:49:19.406Z,3348
2018-03-06T06:49:59.970Z,3388
2018-03-06T06:50:40.520Z,3424
2018-03-06T06:51:21.372Z,3448
2018-03-06T06:52:01.932Z,3484
2018-03-06T06:52:42.474Z,3528
2018-03-06T06:53:23.030Z,3572
2018-03-06T06:54:03.584Z,3636
2018-03-06T06:54:44.292Z,3692
2018-03-06T06:55:24.965Z,3744
2018-03-06T06:56:05.503Z,3792
2018-03-06T06:56:47.100Z,3836
2018-03-06T06:57:27.657Z,3884
2018-03-06T06:58:08.345Z,3936
2018-03-06T06:58:48.924Z,3992
2018-03-06T06:59:29.480Z,4060
2018-03-06T07:00:10.036Z,4132
2018-03-06T07:00:50.621Z,4204
2018-03-06T07:01:32.260Z,4284
2018-03-06T07:02:12.831Z,4368
2018-03-06T07:02:53.388Z,4448
2018-03-06T07:03:34.165Z,4516
2018-03-06T07:04:14.739Z,4580
2018-03-06T07:04:55.315Z,4644
2018-03-06T07:05:35.890Z,4720
2018-03-06T07:06:16.445Z,4792
2018-03-06T07:06:57.052Z,4864
2018-03-06T07:07:37.692Z,4944
2018-03-06T07:08:18.254Z,4996
2018-03-06T07:08:58.791Z,5060
2018-03-06T07:09:39.360Z,5128
2018-03-06T07:10:19.932Z,5216
2018-03-06T07:11:00.480Z,5316
2018-03-06T07:11:41.041Z,5384
2018-03-06T07:12:21.596Z,5452
2018-03-06T07:13:02.192Z,5508
2018-03-06T07:13:42.808Z,5520
2018-03-06T07:14:23.371Z,5504
2018-03-06T07:15:03.917Z,5524
2018-03-06T07:15:44.469Z,5612
2018-03-06T07:16:25.026Z,5720
2018-03-06T07:17:05.579Z,5788
2018-03-06T07:17:46.146Z,5820
2018-03-06T07:18:26.712Z,5840
2018-03-06T07:19:07.433Z,5884
2018-03-06T07:19:47.983Z,5948
2018-03-06T07:20:28.537Z,5912
2018-03-06T07:21:09.110Z,5952
2018-03-06T07:21:49.698Z,6024
2018-03-06T07:22:30.250Z,6056
2018-03-06T07:23:10.909Z,6084
2018-03-06T07:23:51.484Z,5964
2018-03-06T07:24:32.091Z,6012
2018-03-06T07:25:12.662Z,6116
2018-03-06T07:25:53.236Z,6212
2018-03-06T07:26:33.844Z,6288
2018-03-06T07:27:14.331Z,6344
2018-03-06T07:27:54.897Z,6336
2018-03-06T07:28:35.448Z,6460
2018-03-06T07:29:16.002Z,6512
2018-03-06T07:29:56.618Z,6588
2018-03-06T07:30:37.177Z,6612
2018-03-06T07:31:17.781Z,6676
2018-03-06T07:31:58.296Z,6868
2018-03-06T07:32:38.848Z,7120
2018-03-06T07:33:19.413Z,7304
2018-03-06T07:33:59.978Z,7456
2018-03-06T07:34:40.535Z,7688
2018-03-06T07:35:21.146Z,7980
2018-03-06T07:36:01.751Z,8568
2018-03-06T07:36:42.297Z,9712
2018-03-06T07:37:22.937Z,11392
2018-03-06T07:38:03.578Z,12672
2018-03-06T07:38:44.052Z,13360
2018-03-06T07:39:24.628Z,12928
2018-03-06T07:40:05.241Z,11712
2018-03-06T07:40:45.805Z,11560
2018-03-06T07:41:26.372Z,12032
2018-03-06T07:42:06.936Z,13020
2018-03-06T07:42:47.547Z,13424
2018-03-06T07:43:28.104Z,13536
2018-03-06T07:44:08.658Z,14436
2018-03-06T07:44:49.243Z,14708
2018-03-06T07:45:29.807Z,14724
2018-03-06T07:46:10.390Z,12824
2018-03-06T07:46:50.955Z,12404
2018-03-06T07:47:31.615Z,11976
2018-03-06T07:48:12.204Z,11728
2018-03-06T07:48:52.835Z,11792
2018-03-06T07:49:33.397Z,11900
2018-03-06T07:50:13.957Z,12876
2018-03-06T07:50:54.518Z,13252
2018-03-06T07:51:35.062Z,14788
2018-03-06T07:52:15.611Z,14428
2018-03-06T07:52:56.191Z,15936
2018-03-06T07:53:36.745Z,14832
2018-03-06T07:54:17.324Z,15288
2018-03-06T07:54:57.889Z,15012
2018-03-06T07:55:38.518Z,18400
2018-03-06T07:56:19.111Z,18720
2018-03-06T07:56:59.669Z,19808
2018-03-06T07:57:40.231Z,20320
2018-03-06T07:58:20.802Z,20800
2018-03-06T07:59:01.358Z,21728
2018-03-06T07:59:41.976Z,21280
2018-03-06T08:00:22.501Z,20608
2018-03-06T08:01:03.079Z,22080
2018-03-06T08:01:43.637Z,22432
2018-03-06T08:02:24.197Z,18592
2018-03-06T08:03:04.742Z,18208
2018-03-06T08:03:45.287Z,20992
2018-03-06T08:04:25.856Z,20320
2018-03-06T08:05:06.434Z,21120
2018-03-06T08:05:47.033Z,20000
2018-03-06T08:06:27.600Z,20416
2018-03-06T08:07:08.156Z,20352
2018-03-06T08:07:48.769Z,20832
2018-03-06T08:08:29.405Z,21568
2018-03-06T08:09:09.959Z,23008
2018-03-06T08:09:50.510Z,23744
2018-03-06T08:10:31.061Z,22688
2018-03-06T08:11:11.665Z,23392
2018-03-06T08:11:52.328Z,23168
2018-03-06T08:12:32.893Z,23648
2018-03-06T08:13:13.454Z,24512
2018-03-06T08:13:54.014Z,25760
2018-03-06T08:14:34.569Z,24384
2018-03-06T08:15:15.130Z,24480
2018-03-06T08:15:55.696Z,24640
2018-03-06T08:16:36.260Z,24416
2018-03-06T08:17:16.860Z,22848
2018-03-06T08:17:57.403Z,22048
2018-03-06T08:18:37.962Z,21216
2018-03-06T08:19:18.516Z,22752
2018-03-06T08:19:59.097Z,22432
2018-03-06T08:20:39.710Z,23040
2018-03-06T08:21:20.329Z,23200
2018-03-06T08:22:01.043Z,23392
2018-03-06T08:22:41.610Z,23200
2018-03-06T08:23:22.165Z,22656
2018-03-06T08:24:02.724Z,22816
2018-03-06T08:24:43.293Z,22976
2018-03-06T08:25:23.881Z,23584
2018-03-06T08:26:04.424Z,23936
2018-03-06T08:26:44.998Z,23072
2018-03-06T08:27:25.555Z,23488
2018-03-06T08:28:06.120Z,22560
2018-03-06T08:28:46.681Z,22688
2018-03-06T08:29:27.240Z,21824
2018-03-06T08:30:07.818Z,21344
2018-03-06T08:30:48.377Z,20736
2018-03-06T08:31:28.939Z,20352
2018-03-06T08:32:09.524Z,20384
2018-03-06T08:32:50.080Z,20320
2018-03-06T08:33:30.652Z,19968
2018-03-06T08:34:11.199Z,19456
2018-03-06T08:34:51.762Z,18400
2018-03-06T08:35:32.339Z,17792
2018-03-06T08:36:12.902Z,17664
2018-03-06T08:36:53.499Z,17664
2018-03-06T08:37:34.032Z,18240
2018-03-06T08:38:14.604Z,17536
2018-03-06T08:38:55.183Z,17184
2018-03-06T08:39:35.742Z,16800
2018-03-06T08:40:16.303Z,16352
2018-03-06T08:40:56.897Z,15520
2018-03-06T08:41:37.458Z,14944
2018-03-06T08:42:18.011Z,14936
2018-03-06T08:42:58.567Z,14372
2018-03-06T08:43:39.160Z,12952
2018-03-06T08:44:20.211Z,13236
2018-03-06T08:45:00.852Z,13180
2018-03-06T08:45:41.408Z,12532
2018-03-06T08:46:21.966Z,12192
2018-03-06T08:47:02.542Z,12184
2018-03-06T08:47:43.092Z,11836
2018-03-06T08:48:23.652Z,11652
2018-03-06T08:49:04.228Z,11376
2018-03-06T08:49:44.825Z,11016
2018-03-06T08:50:25.404Z,10720
2018-03-06T08:51:05.989Z,10592
2018-03-06T08:51:46.567Z,10256
2018-03-06T08:52:27.134Z,9872
2018-03-06T08:53:07.695Z,9480
2018-03-06T08:53:48.250Z,9468
2018-03-06T08:54:28.808Z,9056
2018-03-06T08:55:09.448Z,9012
2018-03-06T08:55:50.040Z,8968
2018-03-06T08:56:30.720Z,8776
2018-03-06T08:57:11.340Z,8736
2018-03-06T08:57:51.925Z,8728
2018-03-06T08:58:32.539Z,8748
2018-03-06T08:59:13.104Z,8724
2018-03-06T08:59:53.677Z,8796
2018-03-06T09:00:34.238Z,8732
2018-03-06T09:01:14.811Z,8684
2018-03-06T09:01:55.373Z,8504
2018-03-06T09:02:35.936Z,8324
2018-03-06T09:03:16.501Z,8192
2018-03-06T09:03:57.095Z,8096
2018-03-06T09:04:37.756Z,7992
2018-03-06T09:05:18.347Z,7728
2018-03-06T09:05:58.900Z,7612
2018-03-06T09:06:39.457Z,7592
2018-03-06T09:07:20.009Z,7484
2018-03-06T09:08:00.577Z,7496
2018-03-06T09:08:41.126Z,7440
2018-03-06T09:09:21.709Z,7288
2018-03-06T09:10:02.279Z,7280
2018-03-06T09:10:42.834Z,7288
2018-03-06T09:11:23.397Z,7216
2018-03-06T09:12:03.966Z,7332
2018-03-06T09:12:44.522Z,7428
2018-03-06T09:13:25.136Z,7268
2018-03-06T09:14:05.679Z,7192
2018-03-06T09:14:46.263Z,7124
2018-03-06T09:15:26.829Z,7116
2018-03-06T09:16:07.382Z,7280
2018-03-06T09:16:48.222Z,7388
2018-03-06T09:17:28.831Z,7320
2018-03-06T09:18:09.347Z,7288
2018-03-06T09:18:49.914Z,7280
2018-03-06T09:19:30.474Z,7224
2018-03-06T09:20:11.033Z,7112
2018-03-06T09:20:51.589Z,7024
2018-03-06T09:21:32.151Z,7172
2018-03-06T09:22:12.712Z,7232
2018-03-06T09:22:53.277Z,7240
2018-03-06T09:23:33.864Z,7236
2018-03-06T09:24:14.461Z,7212
2018-03-06T09:24:55.054Z,7224
2018-03-06T09:25:35.629Z,7264
2018-03-06T09:26:16.208Z,7316
2018-03-06T09:26:56.763Z,7304
2018-03-06T09:27:37.335Z,7356
2018-03-06T09:28:17.875Z,7344
2018-03-06T09:28:58.517Z,7264
2018-03-06T09:29:39.079Z,7216
2018-03-06T09:30:19.653Z,7148
2018-03-06T09:31:00.212Z,7184
2018-03-06T09:31:40.784Z,7188
2018-03-06T09:32:21.360Z,6956
2018-03-06T09:33:01.938Z,6980
2018-03-06T09:33:42.472Z,7024
2018-03-06T09:34:23.076Z,6944